Time,TemperatureF,DewpointF,PressureIn,WindDirection,WindDirectionDegrees,WindSpeedMPH,WindSpeedGustMPH,Humidity,HourlyPrecipIn,Conditions,Clouds,dailyrainin,SolarRadiationWatts/m^2,SoftwareType,DateUTC
2013-06-09 00:02:00,59.0,25.0,-100.00,NE,53,5.0,5.0,27,-99.99,,,-99.99,0.110000,,2013-06-09 06:02:00,
2013-06-09 00:11:00,59.0,25.0,-100.00,NE,50,4.0,5.0,26,-99.99,,,-99.99,0.070000,,2013-06-09 06:11:00,
2013-06-09 00:22:00,58.0,25.0,-100.00,NE,56,4.0,5.0,27,-99.99,,,-99.99,0.030000,,2013-06-09 06:22:00,
2013-06-09 00:32:00,58.0,25.0,-100.00,NE,47,4.0,5.0,27,-99.99,,,-99.99,0.010000,,2013-06-09 06:32:00,
2013-06-09 00:42:00,58.0,25.0,-100.00,NE,51,4.0,5.0,27,-99.99,,,-99.99,0.020000,,2013-06-09 06:42:00,
2013-06-09 00:52:00,58.0,24.0,-100.00,NE,49,4.0,4.0,26,-99.99,,,-99.99,0.020000,,2013-06-09 06:52:00,
2013-06-09 01:02:00,58.0,25.0,-100.00,NE,45,4.0,4.0,27,-99.99,,,-99.99,0.010000,,2013-06-09 07:02:00,
2013-06-09 01:12:00,59.0,23.0,-100.00,ENE,63,1.0,3.0,25,-99.99,,,-99.99,0.000000,,2013-06-09 07:12:00,
2013-06-09 01:21:00,58.0,25.0,-100.00,NE,48,5.0,5.0,28,-99.99,,,-99.99,0.000000,,2013-06-09 07:21:00,
2013-06-09 01:32:00,57.0,25.0,-100.00,NE,45,5.0,5.0,28,-99.99,,,-99.99,0.010000,,2013-06-09 07:32:00,
2013-06-09 01:42:00,58.0,25.0,-100.00,NE,54,5.0,5.0,27,-99.99,,,-99.99,0.000000,,2013-06-09 07:42:00,
2013-06-09 01:52:00,57.0,25.0,-100.00,NE,51,7.0,7.0,29,-99.99,,,-99.99,0.020000,,2013-06-09 07:52:00,
2013-06-09 02:02:00,56.0,25.0,-100.00,NE,48,7.0,7.0,30,-99.99,,,-99.99,0.000000,,2013-06-09 08:02:00,
2013-06-09 02:12:00,56.0,26.0,-100.00,NE,52,5.0,6.0,30,-99.99,,,-99.99,0.000000,,2013-06-09 08:12:00,
2013-06-09 02:22:00,56.0,26.0,-100.00,NE,52,5.0,6.0,31,-99.99,,,-99.99,0.000000,,2013-06-09 08:22:00,
2013-06-09 02:32:00,56.0,26.0,-100.00,NE,56,5.0,5.0,30,-99.99,,,-99.99,0.010000,,2013-06-09 08:32:00,
2013-06-09 02:42:00,57.0,25.0,-100.00,NE,39,7.0,7.0,29,-99.99,,,-99.99,0.000000,,2013-06-09 08:42:00,
2013-06-09 02:52:00,56.0,26.0,-100.00,NE,53,6.0,7.0,30,-99.99,,,-99.99,0.000000,,2013-06-09 08:52:00,
2013-06-09 03:02:00,56.0,26.0,-100.00,NE,48,7.0,7.0,30,-99.99,,,-99.99,0.000000,,2013-06-09 09:02:00,
2013-06-09 03:12:00,56.0,26.0,-100.00,NE,56,7.0,7.0,30,-99.99,,,-99.99,0.000000,,2013-06-09 09:12:00,
2013-06-09 03:22:00,55.0,25.0,-100.00,NE,56,8.0,8.0,31,-99.99,,,-99.99,0.000000,,2013-06-09 09:22:00,
2013-06-09 03:33:00,54.0,26.0,-100.00,ENE,59,9.0,9.0,33,-99.99,,,-99.99,0.000000,,2013-06-09 09:33:00,
2013-06-09 03:43:00,54.0,27.0,-100.00,ENE,61,8.0,9.0,34,-99.99,,,-99.99,0.000000,,2013-06-09 09:43:00,
2013-06-09 03:52:00,53.0,29.0,-100.00,NE,53,6.0,8.0,38,-99.99,,,-99.99,0.000000,,2013-06-09 09:52:00,
2013-06-09 04:03:00,55.0,29.0,-100.00,NE,52,7.0,8.0,36,-99.99,,,-99.99,0.000000,,2013-06-09 10:03:00,
2013-06-09 04:12:00,55.0,29.0,-100.00,NE,54,8.0,8.0,37,-99.99,,,-99.99,0.000000,,2013-06-09 10:12:00,
2013-06-09 04:22:00,54.0,30.0,-100.00,ENE,57,9.0,9.0,38,-99.99,,,-99.99,0.000000,,2013-06-09 10:22:00,
2013-06-09 04:32:00,54.0,30.0,-100.00,ENE,57,9.0,9.0,38,-99.99,,,-99.99,0.000000,,2013-06-09 10:32:00,
2013-06-09 04:42:00,54.0,29.0,-100.00,ENE,57,8.0,9.0,37,-99.99,,,-99.99,0.000000,,2013-06-09 10:42:00,
2013-06-09 04:52:00,55.0,28.0,-100.00,ENE,57,8.0,8.0,35,-99.99,,,-99.99,0.000000,,2013-06-09 10:52:00,
2013-06-09 05:02:00,54.0,29.0,-100.00,ENE,62,7.0,8.0,37,-99.99,,,-99.99,0.000000,,2013-06-09 11:02:00,
2013-06-09 05:12:00,54.0,29.0,-100.00,ENE,62,8.0,9.0,36,-99.99,,,-99.99,0.000000,,2013-06-09 11:12:00,
2013-06-09 05:22:00,55.0,27.0,-100.00,NE,56,9.0,9.0,34,-99.99,,,-99.99,0.000000,,2013-06-09 11:22:00,
2013-06-09 05:32:00,54.0,28.0,-100.00,ENE,57,8.0,9.0,36,-99.99,,,-99.99,0.000000,,2013-06-09 11:32:00,
2013-06-09 05:41:00,53.0,28.0,-100.00,ENE,60,7.0,7.0,37,-99.99,,,-99.99,0.000000,,2013-06-09 11:41:00,
2013-06-09 05:52:00,53.0,28.0,-100.00,ENE,61,8.0,8.0,36,-99.99,,,-99.99,0.020000,,2013-06-09 11:52:00,
2013-06-09 06:02:00,53.0,28.0,-100.00,ENE,57,7.0,8.0,37,-99.99,,,-99.99,0.360000,,2013-06-09 12:02:00,
2013-06-09 06:12:00,53.0,28.0,-100.00,ENE,60,8.0,8.0,37,-99.99,,,-99.99,1.480000,,2013-06-09 12:12:00,
2013-06-09 06:22:00,53.0,27.0,-100.00,NE,56,8.0,8.0,36,-99.99,,,-99.99,3.630000,,2013-06-09 12:22:00,
2013-06-09 06:32:00,53.0,28.0,-100.00,NE,55,8.0,8.0,37,-99.99,,,-99.99,6.160000,,2013-06-09 12:32:00,
2013-06-09 06:42:00,54.0,29.0,-100.00,NE,55,8.0,8.0,37,-99.99,,,-99.99,8.770000,,2013-06-09 12:42:00,
2013-06-09 06:52:00,53.0,28.0,-100.00,ENE,59,8.0,8.0,38,-99.99,,,-99.99,11.090000,,2013-06-09 12:52:00,
2013-06-09 07:02:00,55.0,28.0,-100.00,ENE,64,8.0,8.0,34,-99.99,,,-99.99,70.050003,,2013-06-09 13:02:00,
2013-06-09 07:12:00,56.0,28.0,-100.00,ENE,57,8.0,8.0,34,-99.99,,,-99.99,123.500000,,2013-06-09 13:12:00,
2013-06-09 07:22:00,57.0,28.0,-100.00,NE,56,7.0,8.0,31,-99.99,,,-99.99,155.000000,,2013-06-09 13:22:00,
2013-06-09 07:32:00,57.0,28.0,-100.00,ENE,59,9.0,9.0,33,-99.99,,,-99.99,185.699997,,2013-06-09 13:32:00,
2013-06-09 07:42:00,58.0,28.0,-100.00,ENE,64,8.0,8.0,31,-99.99,,,-99.99,217.899994,,2013-06-09 13:42:00,
2013-06-09 07:52:00,58.0,29.0,-100.00,ENE,63,8.0,8.0,32,-99.99,,,-99.99,251.399994,,2013-06-09 13:52:00,
2013-06-09 08:02:00,60.0,30.0,-100.00,ENE,59,8.0,8.0,31,-99.99,,,-99.99,286.200012,,2013-06-09 14:02:00,
2013-06-09 08:12:00,61.0,28.0,-100.00,ENE,67,9.0,9.0,29,-99.99,,,-99.99,322.399994,,2013-06-09 14:12:00,
2013-06-09 08:22:00,61.0,29.0,-100.00,ENE,65,10.0,10.0,29,-99.99,,,-99.99,358.399994,,2013-06-09 14:22:00,
2013-06-09 08:32:00,61.0,30.0,-100.00,ENE,64,8.0,10.0,30,-99.99,,,-99.99,394.899994,,2013-06-09 14:32:00,
2013-06-09 08:42:00,61.0,30.0,-100.00,ENE,67,8.0,9.0,30,-99.99,,,-99.99,431.700012,,2013-06-09 14:42:00,
2013-06-09 08:52:00,62.0,29.0,-100.00,ENE,66,8.0,8.0,28,-99.99,,,-99.99,468.700012,,2013-06-09 14:52:00,
2013-06-09 09:02:00,62.0,29.0,-100.00,ENE,66,8.0,8.0,28,-99.99,,,-99.99,468.700012,,2013-06-09 15:02:00,
2013-06-09 09:11:00,63.0,32.0,-100.00,ENE,67,8.0,9.0,31,-99.99,,,-99.99,541.599976,,2013-06-09 15:11:00,
2013-06-09 09:22:00,64.0,34.0,-100.00,ENE,61,8.0,8.0,32,-99.99,,,-99.99,577.599976,,2013-06-09 15:22:00,
2013-06-09 09:32:00,65.0,34.0,-100.00,ENE,62,7.0,8.0,31,-99.99,,,-99.99,613.099976,,2013-06-09 15:32:00,
2013-06-09 09:43:00,66.0,32.0,-100.00,ENE,61,5.0,8.0,28,-99.99,,,-99.99,648.000000,,2013-06-09 15:43:00,
2013-06-09 09:53:00,67.0,36.0,-100.00,ENE,65,5.0,6.0,32,-99.99,,,-99.99,682.299988,,2013-06-09 15:53:00,
2013-06-09 10:03:00,68.0,33.0,-100.00,ENE,58,5.0,7.0,27,-99.99,,,-99.99,714.799988,,2013-06-09 16:03:00,
2013-06-09 10:13:00,69.0,32.0,-100.00,ENE,59,4.0,6.0,25,-99.99,,,-99.99,746.200012,,2013-06-09 16:13:00,
2013-06-09 10:23:00,70.0,33.0,-100.00,ENE,61,3.0,7.0,25,-99.99,,,-99.99,777.500000,,2013-06-09 16:23:00,
2013-06-09 10:33:00,71.0,37.0,-100.00,SSE,164,4.0,7.0,28,-99.99,,,-99.99,807.000000,,2013-06-09 16:33:00,
2013-06-09 10:42:00,72.0,27.0,-100.00,SW,222,6.0,9.0,18,-99.99,,,-99.99,839.000000,,2013-06-09 16:42:00,
2013-06-09 10:52:00,71.0,27.0,-100.00,SW,231,5.0,11.0,19,-99.99,,,-99.99,864.000000,,2013-06-09 16:52:00,
2013-06-09 11:02:00,72.0,32.0,-100.00,SW,225,8.0,11.0,23,-99.99,,,-99.99,885.000000,,2013-06-09 17:02:00,
2013-06-09 11:12:00,72.0,32.0,-100.00,WSW,239,6.0,10.0,22,-99.99,,,-99.99,907.000000,,2013-06-09 17:12:00,
2013-06-09 11:22:00,73.0,32.0,-100.00,SW,216,7.0,10.0,22,-99.99,,,-99.99,928.000000,,2013-06-09 17:22:00,
2013-06-09 11:32:00,73.0,31.0,-100.00,SW,227,9.0,13.0,20,-99.99,,,-99.99,947.000000,,2013-06-09 17:32:00,
2013-06-09 11:42:00,73.0,28.0,-100.00,SW,228,9.0,14.0,18,-99.99,,,-99.99,965.000000,,2013-06-09 17:42:00,
2013-06-09 11:52:00,74.0,33.0,-100.00,WSW,239,9.0,12.0,22,-99.99,,,-99.99,981.000000,,2013-06-09 17:52:00,
2013-06-09 12:02:00,74.0,29.0,-100.00,West,264,6.0,14.0,19,-99.99,,,-99.99,994.000000,,2013-06-09 18:02:00,
2013-06-09 12:11:00,74.0,27.0,-100.00,West,264,8.0,13.0,17,-99.99,,,-99.99,1008.000000,,2013-06-09 18:11:00,
2013-06-09 12:21:00,74.0,27.0,-100.00,SW,236,10.0,16.0,17,-99.99,,,-99.99,1018.000000,,2013-06-09 18:21:00,
2013-06-09 12:32:00,75.0,30.0,-100.00,West,263,8.0,15.0,19,-99.99,,,-99.99,1027.000000,,2013-06-09 18:32:00,
2013-06-09 12:42:00,75.0,28.0,-100.00,WSW,252,11.0,17.0,17,-99.99,,,-99.99,1036.000000,,2013-06-09 18:42:00,
2013-06-09 12:52:00,75.0,28.0,-100.00,WSW,246,12.0,17.0,17,-99.99,,,-99.99,1043.000000,,2013-06-09 18:52:00,
2013-06-09 13:02:00,75.0,29.0,-100.00,WSW,256,11.0,18.0,17,-99.99,,,-99.99,1047.000000,,2013-06-09 19:02:00,
2013-06-09 13:12:00,75.0,24.0,-100.00,WSW,252,13.0,19.0,14,-99.99,,,-99.99,1051.000000,,2013-06-09 19:12:00,
2013-06-09 13:21:00,76.0,26.0,-100.00,WSW,256,13.0,18.0,15,-99.99,,,-99.99,1054.000000,,2013-06-09 19:21:00,
2013-06-09 13:32:00,76.0,25.0,-100.00,WSW,258,12.0,16.0,14,-99.99,,,-99.99,1056.000000,,2013-06-09 19:32:00,
2013-06-09 13:42:00,76.0,25.0,-100.00,WSW,254,11.0,19.0,14,-99.99,,,-99.99,1057.000000,,2013-06-09 19:42:00,
2013-06-09 13:52:00,76.0,28.0,-100.00,WSW,254,14.0,21.0,17,-99.99,,,-99.99,1058.000000,,2013-06-09 19:52:00,
2013-06-09 14:02:00,77.0,29.0,-100.00,WSW,251,15.0,22.0,17,-99.99,,,-99.99,1055.000000,,2013-06-09 20:02:00,
2013-06-09 14:12:00,76.0,31.0,-100.00,WSW,247,12.0,17.0,19,-99.99,,,-99.99,1050.000000,,2013-06-09 20:12:00,
2013-06-09 14:22:00,77.0,30.0,-100.00,West,260,9.0,19.0,18,-99.99,,,-99.99,1046.000000,,2013-06-09 20:22:00,
2013-06-09 14:32:00,78.0,31.0,-100.00,WSW,243,12.0,19.0,18,-99.99,,,-99.99,1040.000000,,2013-06-09 20:32:00,
2013-06-09 14:42:00,78.0,28.0,-100.00,WSW,246,13.0,18.0,16,-99.99,,,-99.99,1032.000000,,2013-06-09 20:42:00,
2013-06-09 14:52:00,78.0,32.0,-100.00,WSW,255,13.0,19.0,18,-99.99,,,-99.99,1021.000000,,2013-06-09 20:52:00,
2013-06-09 15:02:00,77.0,28.0,-100.00,West,259,14.0,21.0,16,-99.99,,,-99.99,1010.000000,,2013-06-09 21:02:00,
2013-06-09 15:12:00,78.0,33.0,-100.00,WSW,243,8.0,15.0,19,-99.99,,,-99.99,998.000000,,2013-06-09 21:12:00,
2013-06-09 15:21:00,78.0,31.0,-100.00,WSW,253,10.0,19.0,18,-99.99,,,-99.99,985.000000,,2013-06-09 21:21:00,
2013-06-09 15:33:00,79.0,32.0,-100.00,WSW,250,12.0,20.0,18,-99.99,,,-99.99,971.000000,,2013-06-09 21:33:00,
2013-06-09 15:42:00,79.0,32.0,-100.00,WSW,241,13.0,18.0,18,-99.99,,,-99.99,955.000000,,2013-06-09 21:42:00,
2013-06-09 15:53:00,78.0,32.0,-100.00,West,260,12.0,18.0,18,-99.99,,,-99.99,936.000000,,2013-06-09 21:53:00,
2013-06-09 16:02:00,79.0,34.0,-100.00,WSW,238,10.0,18.0,19,-99.99,,,-99.99,916.000000,,2013-06-09 22:02:00,
2013-06-09 16:12:00,79.0,32.0,-100.00,WSW,244,10.0,14.0,18,-99.99,,,-99.99,899.000000,,2013-06-09 22:12:00,
2013-06-09 16:22:00,79.0,31.0,-100.00,WSW,257,11.0,18.0,17,-99.99,,,-99.99,877.000000,,2013-06-09 22:22:00,
2013-06-09 16:33:00,79.0,33.0,-100.00,WSW,257,8.0,14.0,18,-99.99,,,-99.99,852.000000,,2013-06-09 22:33:00,
2013-06-09 16:42:00,79.0,31.0,-100.00,West,262,11.0,16.0,17,-99.99,,,-99.99,829.000000,,2013-06-09 22:42:00,
2013-06-09 16:52:00,80.0,32.0,-100.00,West,279,8.0,16.0,17,-99.99,,,-99.99,802.000000,,2013-06-09 22:52:00,
2013-06-09 17:02:00,80.0,35.0,-100.00,WSW,239,6.0,14.0,20,-99.99,,,-99.99,775.599976,,2013-06-09 23:02:00,
2013-06-09 17:12:00,80.0,33.0,-100.00,WSW,248,10.0,13.0,17,-99.99,,,-99.99,748.099976,,2013-06-09 23:12:00,
2013-06-09 17:22:00,80.0,31.0,-100.00,WSW,245,9.0,13.0,17,-99.99,,,-99.99,720.299988,,2013-06-09 23:22:00,
2013-06-09 17:32:00,80.0,33.0,-100.00,West,266,5.0,14.0,18,-99.99,,,-99.99,691.599976,,2013-06-09 23:32:00,
2013-06-09 17:42:00,80.0,29.0,-100.00,WSW,241,6.0,13.0,15,-99.99,,,-99.99,659.900024,,2013-06-09 23:42:00,
2013-06-09 17:52:00,80.0,33.0,-100.00,West,269,8.0,12.0,18,-99.99,,,-99.99,628.599976,,2013-06-09 23:52:00,
2013-06-09 18:02:00,80.0,32.0,-100.00,WSW,247,6.0,12.0,17,-99.99,,,-99.99,597.099976,,2013-06-10 00:02:00,
2013-06-09 18:12:00,80.0,33.0,-100.00,WSW,249,6.0,11.0,17,-99.99,,,-99.99,564.099976,,2013-06-10 00:12:00,
2013-06-09 18:21:00,80.0,34.0,-100.00,West,263,6.0,11.0,18,-99.99,,,-99.99,531.500000,,2013-06-10 00:21:00,
2013-06-09 18:32:00,80.0,37.0,-100.00,West,260,5.0,10.0,20,-99.99,,,-99.99,498.799988,,2013-06-10 00:32:00,
2013-06-09 18:42:00,81.0,32.0,-100.00,NW,309,4.0,11.0,17,-99.99,,,-99.99,466.100006,,2013-06-10 00:42:00,
2013-06-09 18:52:00,80.0,30.0,-100.00,West,268,5.0,11.0,15,-99.99,,,-99.99,433.000000,,2013-06-10 00:52:00,
2013-06-09 19:02:00,81.0,33.0,-100.00,WNW,283,3.0,6.0,17,-99.99,,,-99.99,399.399994,,2013-06-10 01:02:00,
2013-06-09 19:12:00,80.0,32.0,-100.00,WSW,241,4.0,7.0,17,-99.99,,,-99.99,365.600006,,2013-06-10 01:12:00,
2013-06-09 19:22:00,81.0,29.0,-100.00,NNW,329,3.0,4.0,15,-99.99,,,-99.99,331.600006,,2013-06-10 01:22:00,
2013-06-09 19:32:00,81.0,29.0,-100.00,West,267,3.0,4.0,14,-99.99,,,-99.99,258.200012,,2013-06-10 01:32:00,
2013-06-09 19:42:00,81.0,33.0,-100.00,WSW,251,2.0,4.0,17,-99.99,,,-99.99,260.899994,,2013-06-10 01:42:00,
2013-06-09 19:52:00,82.0,33.0,-100.00,North,351,0.0,3.0,16,-99.99,,,-99.99,229.100006,,2013-06-10 01:52:00,
2013-06-09 20:02:00,80.0,35.0,-100.00,West,259,2.0,3.0,19,-99.99,,,-99.99,198.300003,,2013-06-10 02:02:00,
2013-06-09 20:12:00,79.0,35.0,-100.00,NNW,338,0.0,2.0,20,-99.99,,,-99.99,164.699997,,2013-06-10 02:12:00,
2013-06-09 20:22:00,76.0,36.0,-100.00,ENE,61,3.0,4.0,23,-99.99,,,-99.99,53.070000,,2013-06-10 02:22:00,
2013-06-09 20:32:00,74.0,36.0,-100.00,NE,39,2.0,3.0,25,-99.99,,,-99.99,11.610000,,2013-06-10 02:32:00,
2013-06-09 20:42:00,73.0,36.0,-100.00,NE,39,2.0,4.0,25,-99.99,,,-99.99,9.340000,,2013-06-10 02:42:00,
2013-06-09 20:52:00,72.0,35.0,-100.00,NE,50,3.0,3.0,25,-99.99,,,-99.99,7.450000,,2013-06-10 02:52:00,
2013-06-09 21:02:00,72.0,36.0,-100.00,NE,53,5.0,5.0,27,-99.99,,,-99.99,5.660000,,2013-06-10 03:02:00,
2013-06-09 21:12:00,70.0,35.0,-100.00,NE,54,5.0,5.0,27,-99.99,,,-99.99,4.080000,,2013-06-10 03:12:00,
2013-06-09 21:21:00,70.0,35.0,-100.00,NE,54,5.0,5.0,27,-99.99,,,-99.99,4.080000,,2013-06-10 03:21:00,
2013-06-09 21:32:00,71.0,34.0,-100.00,NE,55,4.0,4.0,25,-99.99,,,-99.99,1.010000,,2013-06-10 03:32:00,
2013-06-09 21:43:00,70.0,34.0,-100.00,NE,56,4.0,4.0,25,-99.99,,,-99.99,0.330000,,2013-06-10 03:43:00,
2013-06-09 21:53:00,70.0,34.0,-100.00,NE,53,4.0,4.0,26,-99.99,,,-99.99,0.010000,,2013-06-10 03:53:00,
2013-06-09 22:03:00,70.0,33.0,-100.00,NE,49,4.0,5.0,25,-99.99,,,-99.99,0.000000,,2013-06-10 04:03:00,
2013-06-09 22:12:00,70.0,32.0,-100.00,NE,53,4.0,5.0,24,-99.99,,,-99.99,0.010000,,2013-06-10 04:12:00,
2013-06-09 22:23:00,68.0,33.0,-100.00,NE,54,5.0,6.0,27,-99.99,,,-99.99,0.000000,,2013-06-10 04:23:00,
2013-06-09 22:33:00,68.0,33.0,-100.00,NE,51,4.0,4.0,26,-99.99,,,-99.99,0.020000,,2013-06-10 04:33:00,
2013-06-09 22:42:00,68.0,32.0,-100.00,ENE,64,6.0,7.0,25,-99.99,,,-99.99,0.020000,,2013-06-10 04:42:00,
2013-06-09 22:52:00,67.0,33.0,-100.00,ENE,58,5.0,7.0,28,-99.99,,,-99.99,0.040000,,2013-06-10 04:52:00,
2013-06-09 23:02:00,67.0,33.0,-100.00,NE,55,5.0,6.0,27,-99.99,,,-99.99,0.050000,,2013-06-10 05:02:00,
2013-06-09 23:12:00,68.0,34.0,-100.00,NE,50,5.0,5.0,28,-99.99,,,-99.99,0.120000,,2013-06-10 05:12:00,
2013-06-09 23:22:00,68.0,33.0,-100.00,NE,51,5.0,6.0,26,-99.99,,,-99.99,0.130000,,2013-06-10 05:22:00,
2013-06-09 23:32:00,69.0,34.0,-100.00,NE,53,5.0,6.0,27,-99.99,,,-99.99,0.090000,,2013-06-10 05:32:00,
2013-06-09 23:42:00,68.0,32.0,-100.00,WSW,244,17.0,27.0,25,-99.99,,,-99.99,0.100000,,2013-06-10 05:42:00,
2013-06-09 23:52:00,66.0,31.0,-100.00,West,262,6.0,15.0,26,-99.99,,,-99.99,0.060000,,2013-06-10 05:52:00,